Time;durP1;ratioP1;P1;durP2;ratioP2;P2;SDS_P1;SDS_P2;PMS_P1;PMS_P2;Temp;Humidity;BMP_temperature;BMP_pressure;BME280_temperature;BME280_humidity;BME280_pressure;Samples;Min_cycle;Max_cycle;Signal;HPM_P1;HPM_P2
2022/04/30 00:00:30;;;;;;;;;8.50;7.00;;;;;-128.00;-1.00;-1.00;106644;1267;1002604;-52
2022/04/30 00:03:02;;;;;;;;;7.00;7.00;;;;;-128.00;-1.00;-1.00;106632;1267;1006446;-49
2022/04/30 00:05:30;;;;;;;;;8.00;8.00;;;;;-128.00;-1.00;-1.00;106627;1267;1002886;-53
2022/04/30 00:07:58;;;;;;;;;6.50;6.50;;;;;-128.00;-1.00;-1.00;106605;1266;1008558;-50
2022/04/30 00:10:25;;;;;;;;;6.00;6.00;;;;;-128.00;-1.00;-1.00;106628;1267;1002833;-49
2022/04/30 00:12:53;;;;;;;;;7.00;7.00;;;;;-128.00;-1.00;-1.00;106628;1267;1002741;-49
2022/04/30 00:15:20;;;;;;;;;5.75;5.75;;;;;-128.00;-1.00;-1.00;106602;1267;1002135;-49
2022/04/30 00:17:47;;;;;;;;;9.50;7.00;;;;;-128.00;-1.00;-1.00;106614;1267;1002935;-49
2022/04/30 00:20:15;;;;;;;;;7.50;7.00;;;;;-128.00;-1.00;-1.00;106628;1267;1002973;-49
2022/04/30 00:22:42;;;;;;;;;9.00;8.00;;;;;-128.00;-1.00;-1.00;106594;1267;1002769;-49
2022/04/30 00:25:10;;;;;;;;;7.67;7.67;;;;;-128.00;-1.00;-1.00;106544;1267;1002914;-50
2022/04/30 00:27:37;;;;;;;;;7.00;7.00;;;;;-128.00;-1.00;-1.00;106525;1267;1002327;-47
2022/04/30 00:30:04;;;;;;;;;8.50;8.50;;;;;-128.00;-1.00;-1.00;106429;1267;1002582;-49
2022/04/30 00:32:32;;;;;;;;;9.00;7.00;;;;;-128.00;-1.00;-1.00;106587;1267;1002810;-49
2022/04/30 00:34:59;;;;;;;;;9.00;7.00;;;;;-128.00;-1.00;-1.00;106627;1267;1002876;-50
2022/04/30 00:37:27;;;;;;;;;7.00;7.00;;;;;-128.00;-1.00;-1.00;106605;1267;1003012;-50
2022/04/30 00:39:54;;;;;;;;;8.50;7.50;;;;;-128.00;-1.00;-1.00;106449;1268;1003797;-51
2022/04/30 00:42:21;;;;;;;;;9.00;9.00;;;;;-128.00;-1.00;-1.00;106452;1267;1004191;-50
2022/04/30 00:44:49;;;;;;;;;7.00;7.00;;;;;-128.00;-1.00;-1.00;106621;1267;1002734;-49
2022/04/30 00:47:18;;;;;;;;;7.00;7.00;;;;;-128.00;-1.00;-1.00;106651;1267;1002475;-54
2022/04/30 00:49:46;;;;;;;;;6.50;6.50;;;;;-128.00;-1.00;-1.00;106572;1267;1006475;-51
2022/04/30 00:52:13;;;;;;;;;7.50;7.00;;;;;-128.00;-1.00;-1.00;106573;1268;1002745;-45
2022/04/30 00:54:40;;;;;;;;;8.50;8.50;;;;;-128.00;-1.00;-1.00;106557;1267;1003351;-47
2022/04/30 00:57:07;;;;;;;;;8.00;7.50;;;;;-128.00;-1.00;-1.00;106602;1267;1002344;-51
2022/04/30 00:59:35;;;;;;;;;7.25;6.25;;;;;-128.00;-1.00;-1.00;106583;1267;1002678;-51
2022/04/30 01:02:02;;;;;;;;;6.75;6.75;;;;;-128.00;-1.00;-1.00;106662;1267;1002535;-51
2022/04/30 01:04:29;;;;;;;;;10.00;9.50;;;;;-128.00;-1.00;-1.00;106605;1267;1002914;-52
2022/04/30 01:06:57;;;;;;;;;9.00;9.00;;;;;-128.00;-1.00;-1.00;106591;1267;1002544;-49
2022/04/30 01:09:24;;;;;;;;;6.75;5.75;;;;;-128.00;-1.00;-1.00;106598;1267;1002549;-48
2022/04/30 01:11:51;;;;;;;;;6.50;6.00;;;;;-128.00;-1.00;-1.00;106609;1267;1003094;-49
2022/04/30 01:14:18;;;;;;;;;9.00;9.00;;;;;-128.00;-1.00;-1.00;106444;1268;1002903;-51
2022/04/30 01:16:46;;;;;;;;;7.00;7.00;;;;;-128.00;-1.00;-1.00;106609;1267;1003297;-50
2022/04/30 01:19:13;;;;;;;;;7.00;7.00;;;;;-128.00;-1.00;-1.00;106557;1267;1003079;-49
2022/04/30 01:21:40;;;;;;;;;6.00;6.00;;;;;-128.00;-1.00;-1.00;106619;1267;1002434;-50
2022/04/30 01:24:07;;;;;;;;;6.00;5.50;;;;;-128.00;-1.00;-1.00;106555;1267;1003324;-48
2022/04/30 01:26:35;;;;;;;;;7.25;6.75;;;;;-128.00;-1.00;-1.00;106597;1267;1002916;-49
2022/04/30 01:29:02;;;;;;;;;9.25;9.25;;;;;-128.00;-1.00;-1.00;106617;1267;1002070;-50
2022/04/30 01:39:45;;;;;;;;;9.25;8.25;;;;;-128.00;-1.00;-1.00;106639;1267;1006164;-51
2022/04/30 01:42:12;;;;;;;;;6.25;6.25;;;;;-128.00;-1.00;-1.00;106544;1268;1002750;-49
2022/04/30 01:44:40;;;;;;;;;6.75;6.00;;;;;-128.00;-1.00;-1.00;106600;1267;1002782;-49
2022/04/30 01:47:07;;;;;;;;;7.00;7.00;;;;;-128.00;-1.00;-1.00;106607;1267;1003400;-50
2022/04/30 01:49:35;;;;;;;;;6.00;6.00;;;;;-128.00;-1.00;-1.00;106560;1267;1002836;-50
2022/04/30 01:52:02;;;;;;;;;5.50;5.25;;;;;-128.00;-1.00;-1.00;106610;1267;1002370;-51
2022/04/30 01:54:29;;;;;;;;;7.00;7.00;;;;;-128.00;-1.00;-1.00;106611;1267;1002798;-51
2022/04/30 01:56:56;;;;;;;;;6.33;6.33;;;;;-128.00;-1.00;-1.00;106622;1266;1002484;-49
2022/04/30 01:59:24;;;;;;;;;10.00;9.00;;;;;-128.00;-1.00;-1.00;106629;1267;1003016;-52
2022/04/30 02:01:51;;;;;;;;;7.00;6.75;;;;;-128.00;-1.00;-1.00;106594;1267;1002401;-49
2022/04/30 02:04:18;;;;;;;;;7.00;7.00;;;;;-128.00;-1.00;-1.00;106618;1267;1002624;-50
2022/04/30 02:06:45;;;;;;;;;7.00;6.67;;;;;-128.00;-1.00;-1.00;106603;1268;1002940;-49
2022/04/30 02:09:14;;;;;;;;;6.33;6.00;;;;;-128.00;-1.00;-1.00;106617;1268;1003274;-49
2022/04/30 02:11:41;;;;;;;;;6.25;6.00;;;;;-128.00;-1.00;-1.00;106563;1267;1006630;-49
2022/04/30 02:14:08;;;;;;;;;5.67;5.67;;;;;-128.00;-1.00;-1.00;106651;1267;1002897;-49
2022/04/30 02:16:36;;;;;;;;;6.00;6.00;;;;;-128.00;-1.00;-1.00;106576;1267;1006478;-51
2022/04/30 02:19:03;;;;;;;;;8.50;7.00;;;;;-128.00;-1.00;-1.00;106637;1267;1002306;-50
2022/04/30 02:21:30;;;;;;;;;8.50;6.00;;;;;-128.00;-1.00;-1.00;106597;1268;1002869;-52
2022/04/30 02:23:58;;;;;;;;;7.75;6.75;;;;;-128.00;-1.00;-1.00;106590;1267;1002919;-50
2022/04/30 02:26:27;;;;;;;;;6.50;6.00;;;;;-128.00;-1.00;-1.00;106673;1268;1002907;-50
2022/04/30 02:28:55;;;;;;;;;7.25;6.50;;;;;-128.00;-1.00;-1.00;106611;1267;1006897;-50
2022/04/30 02:31:23;;;;;;;;;7.00;6.33;;;;;-128.00;-1.00;-1.00;106601;1268;1007108;-49
2022/04/30 02:33:50;;;;;;;;;9.25;8.50;;;;;-128.00;-1.00;-1.00;106582;1267;1003076;-49
2022/04/30 02:36:17;;;;;;;;;8.00;8.00;;;;;-128.00;-1.00;-1.00;106594;1267;1002794;-49
2022/04/30 02:38:44;;;;;;;;;6.75;6.25;;;;;-128.00;-1.00;-1.00;106563;1267;1004499;-52
2022/04/30 02:41:12;;;;;;;;;6.00;5.50;;;;;-128.00;-1.00;-1.00;106631;1267;1002560;-49
2022/04/30 02:43:40;;;;;;;;;9.00;8.75;;;;;-128.00;-1.00;-1.00;106511;1267;1002624;-49
2022/04/30 02:46:09;;;;;;;;;9.33;8.33;;;;;-128.00;-1.00;-1.00;106620;1267;1004940;-50
2022/04/30 02:48:36;;;;;;;;;6.75;6.75;;;;;-128.00;-1.00;-1.00;106631;1268;1007011;-49
2022/04/30 02:51:04;;;;;;;;;7.00;7.00;;;;;-128.00;-1.00;-1.00;106636;1267;1002555;-50
2022/04/30 02:53:31;;;;;;;;;6.00;6.00;;;;;-128.00;-1.00;-1.00;106643;1267;1002612;-50
2022/04/30 02:55:59;;;;;;;;;5.75;5.75;;;;;-128.00;-1.00;-1.00;106603;1268;1018142;-49
2022/04/30 03:01:11;;;;;;;;;6.50;6.25;;;;;-128.00;-1.00;-1.00;106644;1268;1006772;-49
2022/04/30 03:03:39;;;;;;;;;9.33;9.33;;;;;-128.00;-1.00;-1.00;106651;1268;1002389;-48
2022/04/30 03:06:07;;;;;;;;;8.50;6.50;;;;;-128.00;-1.00;-1.00;106612;1267;1002356;-49
2022/04/30 03:08:34;;;;;;;;;9.33;9.00;;;;;-128.00;-1.00;-1.00;106679;1268;1003240;-51
2022/04/30 03:11:03;;;;;;;;;6.50;6.50;;;;;-128.00;-1.00;-1.00;106639;1268;1003043;-51
2022/04/30 03:13:31;;;;;;;;;6.75;6.75;;;;;-128.00;-1.00;-1.00;106612;1267;1006941;-50
2022/04/30 03:21:41;;;;;;;;;6.33;6.33;;;;;-128.00;-1.00;-1.00;106611;1268;1002727;-50
2022/04/30 03:21:44;;;;;;;;;6.00;6.00;;;;;-128.00;-1.00;-1.00;106605;1268;1006552;-49
2022/04/30 03:24:11;;;;;;;;;9.67;8.00;;;;;-128.00;-1.00;-1.00;106600;1267;1006516;-50
2022/04/30 03:26:38;;;;;;;;;6.75;6.75;;;;;-128.00;-1.00;-1.00;106539;1268;1002623;-49
2022/04/30 03:29:05;;;;;;;;;8.25;8.25;;;;;-128.00;-1.00;-1.00;106550;1267;1002787;-52
2022/04/30 03:31:33;;;;;;;;;8.25;7.75;;;;;-128.00;-1.00;-1.00;106585;1267;1002906;-52
2022/04/30 03:34:01;;;;;;;;;10.25;6.00;;;;;-128.00;-1.00;-1.00;106504;1267;1002577;-51
2022/04/30 03:36:29;;;;;;;;;10.50;9.25;;;;;-128.00;-1.00;-1.00;106561;1267;1008012;-48
2022/04/30 03:38:56;;;;;;;;;6.00;6.00;;;;;-128.00;-1.00;-1.00;106624;1267;1002942;-47
2022/04/30 03:41:24;;;;;;;;;8.75;6.75;;;;;-128.00;-1.00;-1.00;106644;1267;1003238;-47
2022/04/30 03:43:51;;;;;;;;;7.25;7.25;;;;;-128.00;-1.00;-1.00;106527;1267;1002642;-50
2022/04/30 03:46:18;;;;;;;;;9.00;7.25;;;;;-128.00;-1.00;-1.00;106567;1268;1003243;-47
2022/04/30 03:48:47;;;;;;;;;6.00;6.00;;;;;-128.00;-1.00;-1.00;106533;1267;1002613;-52
2022/04/30 03:51:14;;;;;;;;;6.75;6.75;;;;;-128.00;-1.00;-1.00;106616;1267;1007669;-48
2022/04/30 03:53:42;;;;;;;;;7.00;7.00;;;;;-128.00;-1.00;-1.00;106616;1267;1003158;-49
2022/04/30 03:56:09;;;;;;;;;8.75;7.75;;;;;-128.00;-1.00;-1.00;106635;1267;1002570;-50
2022/04/30 03:58:37;;;;;;;;;9.00;9.00;;;;;-128.00;-1.00;-1.00;106555;1267;1002874;-53
2022/04/30 04:01:04;;;;;;;;;6.75;6.75;;;;;-128.00;-1.00;-1.00;106601;1267;1003001;-54
2022/04/30 04:03:31;;;;;;;;;7.00;7.00;;;;;-128.00;-1.00;-1.00;106494;1267;1003190;-51
2022/04/30 04:05:58;;;;;;;;;9.00;6.75;;;;;-128.00;-1.00;-1.00;106556;1267;1003008;-51
2022/04/30 04:08:26;;;;;;;;;9.00;9.00;;;;;-128.00;-1.00;-1.00;106644;1267;1003497;-52
2022/04/30 04:10:54;;;;;;;;;8.50;8.25;;;;;-128.00;-1.00;-1.00;106668;1267;1002721;-53
2022/04/30 04:18:54;;;;;;;;;6.33;6.33;;;;;-128.00;-1.00;-1.00;106562;1267;1007280;-49
2022/04/30 04:21:22;;;;;;;;;7.25;6.50;;;;;-128.00;-1.00;-1.00;106613;1267;1007379;-49
2022/04/30 04:26:34;;;;;;;;;8.75;7.50;;;;;-128.00;-1.00;-1.00;106648;1267;1008159;-50
2022/04/30 04:29:01;;;;;;;;;6.33;6.33;;;;;-128.00;-1.00;-1.00;106586;1267;1002383;-53
2022/04/30 04:31:29;;;;;;;;;7.00;7.00;;;;;-128.00;-1.00;-1.00;106327;1268;1003207;-51
2022/04/30 04:33:56;;;;;;;;;8.75;8.75;;;;;-128.00;-1.00;-1.00;106588;1267;1002562;-47
2022/04/30 04:36:23;;;;;;;;;8.75;8.00;;;;;-128.00;-1.00;-1.00;106615;1267;1002719;-51
2022/04/30 04:38:50;;;;;;;;;9.25;9.25;;;;;-128.00;-1.00;-1.00;106609;1267;1002819;-52
2022/04/30 04:41:18;;;;;;;;;9.50;8.25;;;;;-128.00;-1.00;-1.00;106662;1267;1002820;-49
2022/04/30 04:43:45;;;;;;;;;8.25;7.25;;;;;-128.00;-1.00;-1.00;106619;1267;1002565;-49
2022/04/30 04:46:12;;;;;;;;;8.25;7.00;;;;;-128.00;-1.00;-1.00;106595;1267;1002573;-49
2022/04/30 04:48:39;;;;;;;;;7.75;6.00;;;;;-128.00;-1.00;-1.00;106592;1267;1002725;-51
2022/04/30 04:51:07;;;;;;;;;10.50;9.00;;;;;-128.00;-1.00;-1.00;106632;1267;1002700;-51
2022/04/30 04:53:34;;;;;;;;;9.00;7.00;;;;;-128.00;-1.00;-1.00;106676;1267;1002539;-51
2022/04/30 04:56:03;;;;;;;;;6.75;6.25;;;;;-128.00;-1.00;-1.00;106560;1267;1004022;-49
2022/04/30 04:58:31;;;;;;;;;8.75;8.25;;;;;-128.00;-1.00;-1.00;106615;1267;1008130;-51
2022/04/30 05:00:58;;;;;;;;;10.00;9.00;;;;;-128.00;-1.00;-1.00;106489;1267;1003023;-50
2022/04/30 05:03:25;;;;;;;;;6.50;6.50;;;;;-128.00;-1.00;-1.00;106601;1267;1002643;-52
2022/04/30 05:05:52;;;;;;;;;7.00;7.00;;;;;-128.00;-1.00;-1.00;106625;1267;1002673;-54
2022/04/30 05:08:20;;;;;;;;;7.33;7.00;;;;;-128.00;-1.00;-1.00;106683;1268;1001948;-51
2022/04/30 05:10:47;;;;;;;;;8.00;7.50;;;;;-128.00;-1.00;-1.00;106587;1267;1002909;-51
2022/04/30 05:13:14;;;;;;;;;7.75;7.75;;;;;-128.00;-1.00;-1.00;106598;1267;1005962;-48
2022/04/30 05:15:41;;;;;;;;;7.67;7.67;;;;;-128.00;-1.00;-1.00;106614;1267;1002249;-51
2022/04/30 05:18:09;;;;;;;;;8.50;8.50;;;;;-128.00;-1.00;-1.00;106618;1267;1003185;-49
2022/04/30 05:20:36;;;;;;;;;8.50;8.50;;;;;-128.00;-1.00;-1.00;106543;1267;1002790;-50
2022/04/30 05:23:03;;;;;;;;;8.00;7.50;;;;;-128.00;-1.00;-1.00;106580;1267;1002521;-50
2022/04/30 05:25:31;;;;;;;;;12.25;10.00;;;;;-128.00;-1.00;-1.00;106521;1268;1003487;-51
2022/04/30 05:27:58;;;;;;;;;10.33;9.00;;;;;-128.00;-1.00;-1.00;106601;1267;1002545;-50
2022/04/30 05:30:25;;;;;;;;;10.67;9.67;;;;;-128.00;-1.00;-1.00;106495;1268;1002591;-53
2022/04/30 05:32:52;;;;;;;;;8.50;8.50;;;;;-128.00;-1.00;-1.00;106512;1267;1001688;-51
2022/04/30 05:35:20;;;;;;;;;11.00;11.00;;;;;-128.00;-1.00;-1.00;106651;1268;1004541;-50
2022/04/30 05:37:47;;;;;;;;;6.67;6.67;;;;;-128.00;-1.00;-1.00;106555;1267;1004610;-51
2022/04/30 05:40:14;;;;;;;;;10.50;9.25;;;;;-128.00;-1.00;-1.00;106593;1267;1002444;-52
2022/04/30 05:42:41;;;;;;;;;9.00;9.00;;;;;-128.00;-1.00;-1.00;106620;1267;1003642;-49
2022/04/30 05:45:09;;;;;;;;;7.00;6.00;;;;;-128.00;-1.00;-1.00;106588;1267;1003339;-50
2022/04/30 05:47:36;;;;;;;;;10.00;9.50;;;;;-128.00;-1.00;-1.00;106547;1268;1002945;-50
2022/04/30 05:50:04;;;;;;;;;10.50;8.75;;;;;-128.00;-1.00;-1.00;106596;1267;1002795;-50
2022/04/30 05:52:33;;;;;;;;;10.00;10.00;;;;;-128.00;-1.00;-1.00;106608;1268;1003608;-50
2022/04/30 05:55:01;;;;;;;;;10.00;9.67;;;;;-128.00;-1.00;-1.00;106626;1267;1007394;-51
2022/04/30 05:57:29;;;;;;;;;9.00;9.00;;;;;-128.00;-1.00;-1.00;106619;1267;1008128;-52
2022/04/30 05:59:56;;;;;;;;;7.25;7.25;;;;;-128.00;-1.00;-1.00;106631;1268;1002787;-51
2022/04/30 06:02:24;;;;;;;;;10.75;10.25;;;;;-128.00;-1.00;-1.00;106568;1267;1004485;-49
2022/04/30 06:04:51;;;;;;;;;8.33;7.00;;;;;-128.00;-1.00;-1.00;106590;1267;1004064;-48
2022/04/30 06:07:18;;;;;;;;;9.67;9.67;;;;;-128.00;-1.00;-1.00;106584;1267;1003421;-50
2022/04/30 06:09:46;;;;;;;;;8.00;7.50;;;;;-128.00;-1.00;-1.00;106663;1267;1003464;-50
2022/04/30 06:12:13;;;;;;;;;8.00;7.00;;;;;-128.00;-1.00;-1.00;106604;1267;1002707;-51
2022/04/30 06:14:40;;;;;;;;;9.00;7.50;;;;;-128.00;-1.00;-1.00;106664;1267;1005598;-50
2022/04/30 06:17:07;;;;;;;;;10.00;9.25;;;;;-128.00;-1.00;-1.00;106681;1267;1002912;-51
2022/04/30 06:19:35;;;;;;;;;7.25;6.75;;;;;-128.00;-1.00;-1.00;106379;1267;1002860;-55
2022/04/30 06:22:02;;;;;;;;;8.00;6.50;;;;;-128.00;-1.00;-1.00;106602;1267;1002980;-50
2022/04/30 06:24:29;;;;;;;;;9.00;8.33;;;;;-128.00;-1.00;-1.00;106613;1268;1003017;-52
2022/04/30 06:26:57;;;;;;;;;7.00;7.00;;;;;-128.00;-1.00;-1.00;106614;1267;1002444;-51
2022/04/30 06:29:24;;;;;;;;;7.00;7.00;;;;;-128.00;-1.00;-1.00;106666;1267;1002529;-51
2022/04/30 06:31:51;;;;;;;;;10.25;7.00;;;;;-128.00;-1.00;-1.00;106476;1268;1004545;-51
2022/04/30 06:34:18;;;;;;;;;9.00;8.33;;;;;-128.00;-1.00;-1.00;106584;1267;1002738;-53
2022/04/30 06:36:46;;;;;;;;;7.75;7.75;;;;;-128.00;-1.00;-1.00;106623;1267;1002647;-51
2022/04/30 06:39:13;;;;;;;;;7.00;7.00;;;;;-128.00;-1.00;-1.00;106544;1267;1002735;-49
2022/04/30 06:41:40;;;;;;;;;9.00;9.00;;;;;-128.00;-1.00;-1.00;106559;1267;1002915;-50
2022/04/30 06:44:07;;;;;;;;;9.00;9.00;;;;;-128.00;-1.00;-1.00;106635;1268;1002913;-49
2022/04/30 06:46:35;;;;;;;;;9.00;7.00;;;;;-128.00;-1.00;-1.00;106582;1267;1005877;-49
2022/04/30 06:49:02;;;;;;;;;10.00;8.67;;;;;-128.00;-1.00;-1.00;106540;1267;1002706;-52
2022/04/30 06:51:29;;;;;;;;;10.00;9.75;;;;;-128.00;-1.00;-1.00;106607;1267;1004897;-53
2022/04/30 06:59:28;;;;;;;;;9.75;9.75;;;;;-128.00;-1.00;-1.00;106651;1267;1005780;-53
2022/04/30 07:02:00;;;;;;;;;11.25;9.00;;;;;-128.00;-1.00;-1.00;106573;1267;1006691;-51
2022/04/30 07:04:28;;;;;;;;;11.67;10.00;;;;;-128.00;-1.00;-1.00;106610;1267;1006779;-51
2022/04/30 07:06:55;;;;;;;;;13.75;11.00;;;;;-128.00;-1.00;-1.00;106594;1267;1006994;-52
2022/04/30 07:09:22;;;;;;;;;11.25;11.25;;;;;-128.00;-1.00;-1.00;106575;1267;1003259;-50
2022/04/30 07:11:50;;;;;;;;;13.25;12.75;;;;;-128.00;-1.00;-1.00;106629;1268;1004918;-50
2022/04/30 07:14:17;;;;;;;;;14.00;13.00;;;;;-128.00;-1.00;-1.00;106634;1267;1003310;-50
2022/04/30 07:16:44;;;;;;;;;15.75;13.25;;;;;-128.00;-1.00;-1.00;106483;1267;1002780;-50
2022/04/30 07:19:11;;;;;;;;;14.67;13.67;;;;;-128.00;-1.00;-1.00;106652;1267;1002554;-53
2022/04/30 07:21:39;;;;;;;;;10.00;10.00;;;;;-128.00;-1.00;-1.00;106609;1267;1002731;-51
2022/04/30 07:26:12;;;;;;;;;15.00;14.00;;;;;23.08;41.17;101834.46;107220;1303;17822;-50
2022/04/30 07:28:40;;;;;;;;;16.33;15.33;;;;;23.03;40.68;101837.67;108650;1277;18436;-51
2022/04/30 07:31:08;;;;;;;;;15.00;15.00;;;;;22.97;40.48;101836.48;108640;1277;18798;-51
2022/04/30 07:33:35;;;;;;;;;11.50;11.00;;;;;22.96;40.36;101840.82;110112;1268;18534;-53
2022/04/30 07:36:03;;;;;;;;;14.00;13.00;;;;;22.95;40.01;101837.09;110137;1268;19317;-49
2022/04/30 07:38:30;;;;;;;;;17.50;13.00;;;;;22.94;39.97;101834.83;110182;1268;18749;-53
2022/04/30 07:40:58;;;;;;;;;15.00;15.00;;;;;22.88;40.04;101835.30;110105;1264;196735;-54
2022/04/30 07:43:26;;;;;;;;;20.00;18.00;;;;;22.83;39.67;101829.63;110100;1267;18674;-50
2022/04/30 07:45:53;;;;;;;;;19.00;16.33;;;;;22.81;38.81;101825.98;110045;1267;23108;-48
2022/04/30 07:48:20;;;;;;;;;14.00;13.33;;;;;22.81;38.58;101825.27;110140;1267;18364;-50
2022/04/30 07:50:47;;;;;;;;;15.00;15.00;;;;;22.76;37.90;101822.01;110159;1265;18627;-50
2022/04/30 07:53:15;;;;;;;;;20.00;18.00;;;;;22.59;36.07;101819.25;110210;1265;19500;-49
2022/04/30 07:55:42;;;;;;;;;18.00;18.00;;;;;22.42;35.84;101818.45;110125;1267;20484;-50
2022/04/30 07:58:09;;;;;;;;;21.00;17.00;;;;;22.37;35.09;101813.58;110202;1264;21823;-49
2022/04/30 08:00:36;;;;;;;;;21.00;18.00;;;;;22.30;35.24;101809.53;110206;1265;18699;-51
2022/04/30 08:03:04;;;;;;;;;18.00;17.00;;;;;22.37;35.13;101813.37;110181;1265;21946;-51
2022/04/30 08:05:32;;;;;;;;;16.67;14.33;;;;;22.49;35.14;101812.82;110213;1268;18576;-51
2022/04/30 08:07:59;;;;;;;;;13.33;13.33;;;;;22.52;34.72;101815.38;110111;1265;19574;-54
2022/04/30 08:10:26;;;;;;;;;17.00;14.00;;;;;22.58;34.77;101811.54;110134;1267;30888;-51
2022/04/30 08:12:55;;;;;;;;;18.50;15.00;;;;;22.58;34.07;101812.26;110213;1264;18651;-51
2022/04/30 08:15:22;;;;;;;;;16.00;14.50;;;;;22.40;33.24;101811.10;110046;1268;20720;-49
2022/04/30 08:17:49;;;;;;;;;17.50;16.00;;;;;22.26;33.49;101807.42;110064;1268;18417;-51
2022/04/30 08:20:16;;;;;;;;;16.00;16.00;;;;;22.29;33.65;101807.07;110093;1268;18524;-53
2022/04/30 08:22:44;;;;;;;;;16.00;16.00;;;;;22.18;33.34;101807.57;109930;1267;18830;-50
2022/04/30 08:25:11;;;;;;;;;17.00;15.33;;;;;22.18;33.57;101811.23;110215;1265;21873;-51
2022/04/30 08:27:38;;;;;;;;;17.00;15.00;;;;;22.25;33.83;101805.73;110093;1265;18649;-49
2022/04/30 08:30:05;;;;;;;;;17.00;15.00;;;;;22.24;33.31;101803.11;110286;1262;19216;-51
2022/04/30 08:32:33;;;;;;;;;13.67;13.67;;;;;22.14;33.09;101803.29;110265;1264;18195;-50
2022/04/30 08:35:00;;;;;;;;;14.00;13.00;;;;;22.18;33.13;101801.27;110278;1264;18592;-51
2022/04/30 08:37:29;;;;;;;;;14.00;13.00;;;;;22.14;32.63;101801.04;110293;1264;18870;-50
2022/04/30 08:39:56;;;;;;;;;12.00;11.00;;;;;22.10;32.53;101796.11;110270;1264;20877;-52
2022/04/30 08:42:23;;;;;;;;;13.50;10.50;;;;;22.04;32.38;101796.03;110262;1265;18574;-51
2022/04/30 08:44:51;;;;;;;;;15.33;11.33;;;;;22.01;32.46;101800.68;110367;1261;18737;-50
2022/04/30 08:47:18;;;;;;;;;10.00;10.00;;;;;21.85;32.27;101800.00;110334;1264;21024;-50
2022/04/30 08:49:45;;;;;;;;;12.33;12.33;;;;;21.85;32.18;101801.85;110306;1264;18707;-50
2022/04/30 08:52:12;;;;;;;;;13.00;12.00;;;;;21.93;32.21;101798.52;110380;1262;19206;-50
2022/04/30 08:54:40;;;;;;;;;12.33;10.67;;;;;21.95;31.99;101799.77;110255;1264;18498;-51
2022/04/30 08:57:07;;;;;;;;;12.00;12.00;;;;;21.96;31.68;101796.89;110274;1262;18851;-50
2022/04/30 08:59:34;;;;;;;;;14.67;14.00;;;;;21.91;31.82;101795.58;110310;1264;21996;-47
2022/04/30 09:02:02;;;;;;;;;13.00;11.33;;;;;21.83;31.54;101796.81;110187;1265;18231;-48
2022/04/30 09:04:29;;;;;;;;;13.67;13.00;;;;;21.87;31.73;101792.52;110256;1264;18626;-47
2022/04/30 09:06:56;;;;;;;;;15.33;13.33;;;;;21.91;31.39;101795.23;110268;1264;19130;-49
2022/04/30 09:09:24;;;;;;;;;12.00;10.00;;;;;21.93;31.44;101793.95;110281;1264;19161;-50
2022/04/30 09:11:53;;;;;;;;;12.33;12.33;;;;;21.89;31.42;101790.31;110330;1262;18601;-49
2022/04/30 09:14:20;;;;;;;;;10.00;10.00;;;;;21.89;31.53;101793.08;110313;1264;20255;-53
2022/04/30 09:16:47;;;;;;;;;12.67;10.67;;;;;21.89;31.39;101789.98;110249;1264;22090;-46
2022/04/30 09:19:15;;;;;;;;;9.00;9.00;;;;;21.90;31.49;101791.52;110316;1264;18548;-50
2022/04/30 09:21:42;;;;;;;;;12.00;10.00;;;;;21.92;31.31;101788.63;110320;1265;22021;-46
2022/04/30 09:24:09;;;;;;;;;10.00;9.00;;;;;21.82;31.16;101785.41;110286;1262;18237;-50
2022/04/30 09:26:36;;;;;;;;;13.00;11.33;;;;;21.78;31.13;101787.90;110349;1265;18563;-48
2022/04/30 09:29:04;;;;;;;;;11.00;10.00;;;;;21.76;31.19;101788.40;110280;1264;21847;-50
2022/04/30 09:31:31;;;;;;;;;11.33;9.33;;;;;21.61;31.00;101780.70;110290;1264;18317;-52
2022/04/30 09:33:59;;;;;;;;;8.33;8.00;;;;;21.61;31.01;101783.77;110276;1264;18519;-49
2022/04/30 09:39:12;;;;;;;;;12.00;9.00;;;;;21.86;30.82;101785.20;110302;1262;17991;-50
2022/04/30 09:41:39;;;;;;;;;9.50;9.00;;;;;21.88;30.75;101781.36;110312;1264;21892;-50
2022/04/30 09:44:06;;;;;;;;;9.33;8.67;;;;;21.87;30.59;101780.00;110285;1264;18631;-49
2022/04/30 09:46:33;;;;;;;;;9.33;9.33;;;;;21.79;30.73;101781.00;110289;1264;20725;-51
2022/04/30 09:54:31;;;;;;;;;11.33;9.00;;;;;21.75;30.67;101773.41;110304;1264;21873;-50
2022/04/30 09:56:58;;;;;;;;;8.33;8.00;;;;;21.78;30.69;101772.02;110289;1264;18772;-53
2022/04/30 09:59:25;;;;;;;;;8.33;8.00;;;;;21.75;30.76;101771.23;110335;1264;19380;-47
2022/04/30 10:01:52;;;;;;;;;9.50;9.00;;;;;21.75;30.56;101769.80;110293;1264;19176;-49
2022/04/30 10:04:20;;;;;;;;;9.00;9.00;;;;;21.77;30.77;101766.34;110279;1264;19168;-51
2022/04/30 10:06:48;;;;;;;;;10.00;8.33;;;;;21.68;30.50;101761.45;110300;1264;18343;-49
2022/04/30 10:09:16;;;;;;;;;13.00;9.50;;;;;21.61;30.41;101761.03;110274;1264;22028;-50
2022/04/30 10:11:43;;;;;;;;;9.00;9.00;;;;;21.65;30.36;101759.17;110294;1264;18565;-50
2022/04/30 10:14:10;;;;;;;;;9.00;9.00;;;;;21.72;30.42;101760.98;110281;1264;19013;-55
2022/04/30 10:16:38;;;;;;;;;9.00;8.33;;;;;21.77;30.40;101758.14;110259;1264;17903;-50
2022/04/30 10:19:11;;;;;;;;;8.00;8.00;;;;;21.83;30.43;101758.98;110293;1264;18578;-48
2022/04/30 10:21:39;;;;;;;;;8.00;8.00;;;;;21.87;30.29;101758.13;110292;1264;20706;-51
2022/04/30 10:24:06;;;;;;;;;9.00;9.00;;;;;21.82;30.31;101756.66;110429;1262;17836;-48
2022/04/30 10:26:34;;;;;;;;;9.00;8.67;;;;;21.69;30.24;101754.95;110468;1261;20815;-54
2022/04/30 10:29:01;;;;;;;;;8.00;6.00;;;;;21.74;30.21;101753.35;110400;1262;18610;-50
2022/04/30 10:31:28;;;;;;;;;9.00;9.00;;;;;21.79;30.19;101751.49;110404;1262;20391;-52
2022/04/30 10:33:55;;;;;;;;;8.33;8.33;;;;;21.80;30.27;101747.80;110419;1261;18551;-50
2022/04/30 10:36:23;;;;;;;;;10.00;9.00;;;;;21.75;30.33;101742.88;110468;1262;18446;-49
2022/04/30 10:38:50;;;;;;;;;8.67;8.00;;;;;21.71;30.07;101743.34;110454;1262;18184;-50
2022/04/30 10:41:17;;;;;;;;;9.00;8.00;;;;;21.74;30.39;101741.21;110418;1261;18817;-48
2022/04/30 10:43:44;;;;;;;;;10.00;9.00;;;;;21.76;30.33;101741.30;110433;1262;18466;-53
2022/04/30 10:46:11;;;;;;;;;6.67;6.67;;;;;21.75;30.32;101737.80;110426;1262;20458;-50
2022/04/30 10:48:39;;;;;;;;;12.00;9.00;;;;;21.76;30.12;101737.15;110279;1264;18531;-50
2022/04/30 10:51:06;;;;;;;;;8.00;8.00;;;;;21.77;30.17;101734.48;110448;1261;18387;-50
2022/04/30 10:53:33;;;;;;;;;8.33;6.67;;;;;21.74;30.23;101728.27;110450;1261;17939;-49
2022/04/30 10:56:00;;;;;;;;;9.33;9.00;;;;;21.71;30.20;101730.55;110413;1262;21830;-50
2022/04/30 10:58:28;;;;;;;;;8.00;8.00;;;;;21.72;30.15;101727.18;110427;1261;18338;-51
2022/04/30 11:00:55;;;;;;;;;8.67;8.67;;;;;21.67;30.30;101723.70;110433;1262;18078;-52
2022/04/30 11:03:22;;;;;;;;;8.00;8.00;;;;;21.69;30.30;101724.08;110349;1262;19680;-51
2022/04/30 11:05:50;;;;;;;;;9.00;8.33;;;;;21.72;30.30;101722.67;110473;1262;21949;-51
2022/04/30 11:08:17;;;;;;;;;9.67;9.00;;;;;21.76;30.23;101718.60;110422;1262;18076;-50
2022/04/30 11:10:44;;;;;;;;;10.00;9.00;;;;;21.72;30.23;101714.30;110419;1262;18874;-49
2022/04/30 11:13:11;;;;;;;;;9.00;8.00;;;;;21.69;29.98;101713.82;110418;1262;24738;-50
2022/04/30 11:15:38;;;;;;;;;8.00;8.00;;;;;21.75;30.14;101712.70;110439;1262;18150;-55
2022/04/30 11:18:06;;;;;;;;;13.00;12.00;;;;;21.80;30.09;101714.73;110455;1262;18576;-51
2022/04/30 11:20:33;;;;;;;;;8.00;8.00;;;;;21.76;30.06;101711.52;110460;1261;18273;-50
2022/04/30 11:23:01;;;;;;;;;9.00;9.00;;;;;21.73;29.91;101711.19;110426;1262;17934;-51
2022/04/30 11:25:28;;;;;;;;;9.00;8.00;;;;;21.75;29.70;101709.41;110436;1262;18524;-51
2022/04/30 11:27:55;;;;;;;;;8.00;8.00;;;;;21.73;29.67;101709.45;110318;1264;18267;-50
2022/04/30 11:30:23;;;;;;;;;8.00;8.00;;;;;21.75;29.72;101701.75;110322;1262;19373;-51
2022/04/30 11:32:50;;;;;;;;;9.00;8.00;;;;;21.75;29.56;101706.14;110480;1262;19017;-50
2022/04/30 11:35:17;;;;;;;;;10.00;8.00;;;;;21.72;29.36;101697.67;110431;1261;18240;-50
2022/04/30 11:37:45;;;;;;;;;12.00;10.00;;;;;21.63;29.36;101698.70;110416;1261;18319;-51
2022/04/30 11:40:12;;;;;;;;;9.67;9.00;;;;;21.61;29.16;101702.45;110388;1261;18873;-52
2022/04/30 11:42:39;;;;;;;;;10.67;8.33;;;;;21.65;29.34;101698.79;110425;1262;20904;-51
2022/04/30 11:45:06;;;;;;;;;12.33;12.00;;;;;21.67;29.13;101697.91;110449;1261;18162;-54
2022/04/30 11:47:34;;;;;;;;;10.00;10.00;;;;;21.67;29.11;101696.08;110346;1261;18835;-50
2022/04/30 11:50:01;;;;;;;;;13.00;12.00;;;;;21.69;29.25;101690.41;110371;1262;21359;-48